Time;durP1;ratioP1;P1;durP2;ratioP2;P2;SDS_P1;SDS_P2;PMS_P1;PMS_P2;Temp;Humidity;BMP_temperature;BMP_pressure;BME280_temperature;BME280_humidity;BME280_pressure;Samples;Min_cycle;Max_cycle;Signal;HPM_P1;HPM_P2
2023/08/27 00:08:32;;;;;;;6.28;4.15;;;;;;;25.42;51.24;100906.00;21071072;28;20037;-63
2023/08/27 00:18:34;;;;;;;5.70;4.50;;;;;;;25.45;51.22;100916.59;21030086;28;20151;-64
2023/08/27 00:28:35;;;;;;;6.10;4.40;;;;;;;25.39;50.36;100926.25;21056733;28;20066;-64
2023/08/27 00:38:37;;;;;;;5.57;4.10;;;;;;;25.38;50.81;100938.59;21074604;28;20070;-63
2023/08/27 00:48:39;;;;;;;6.90;5.15;;;;;;;25.34;50.96;100935.59;21076035;28;20044;-65
2023/08/27 00:58:40;;;;;;;6.22;4.10;;;;;;;25.43;50.89;100944.09;21074851;28;20101;-63
2023/08/27 01:09:16;;;;;;;5.97;4.22;;;;;;;25.38;50.41;100955.41;21047199;28;20450;-64
2023/08/27 01:19:18;;;;;;;6.50;4.93;;;;;;;25.35;50.65;100957.69;21065746;28;20052;-62
2023/08/27 01:29:40;;;;;;;7.38;4.88;;;;;;;25.35;50.21;100980.09;21072452;28;20040;-62
2023/08/27 01:39:44;;;;;;;6.40;4.57;;;;;;;25.33;50.73;100987.13;21082313;28;20483;-63
2023/08/27 01:49:45;;;;;;;5.55;4.75;;;;;;;25.30;50.32;100988.59;21081913;28;20445;-64
2023/08/27 01:59:46;;;;;;;5.38;4.57;;;;;;;25.29;50.22;100986.94;21082106;28;20043;-62
2023/08/27 02:09:48;;;;;;;8.40;5.13;;;;;;;25.32;50.09;100983.50;21079502;28;20047;-64
2023/08/27 02:19:49;;;;;;;5.53;4.97;;;;;;;25.26;49.89;100987.56;21065771;28;20430;-63
2023/08/27 02:29:51;;;;;;;6.65;5.28;;;;;;;25.28;49.04;100996.47;21005502;28;20044;-62
2023/08/27 02:39:55;;;;;;;4.68;4.20;;;;;;;25.24;49.87;101006.63;21049243;28;20479;-63
2023/08/27 02:49:56;;;;;;;6.25;4.38;;;;;;;25.28;49.77;101013.28;21078862;28;20031;-63
2023/08/27 02:59:57;;;;;;;6.07;4.97;;;;;;;25.24;49.73;101009.41;21076950;28;20044;-63
2023/08/27 03:09:59;;;;;;;5.38;4.82;;;;;;;25.22;49.52;101002.50;21073712;28;20116;-63
2023/08/27 03:20:00;;;;;;;5.90;5.05;;;;;;;25.21;49.31;101004.47;20991391;28;20549;-63
2023/08/27 03:30:03;;;;;;;5.38;4.78;;;;;;;25.23;49.03;101009.75;21065699;28;20561;-63
2023/08/27 03:40:05;;;;;;;5.30;4.80;;;;;;;25.18;49.44;101024.66;21075858;28;20179;-63
2023/08/27 03:50:07;;;;;;;5.20;4.70;;;;;;;25.18;49.30;101029.44;21074369;28;20085;-63
2023/08/27 04:00:09;;;;;;;5.78;5.18;;;;;;;25.13;48.89;101033.16;21075235;28;20931;-63
2023/08/27 04:10:11;;;;;;;6.18;4.95;;;;;;;25.00;49.02;101017.97;21082994;28;20137;-63
2023/08/27 04:20:15;;;;;;;5.05;4.55;;;;;;;25.12;49.26;101041.88;21088738;28;20557;-63
2023/08/27 04:30:17;;;;;;;6.72;4.53;;;;;;;25.04;47.53;101044.22;21088167;28;20044;-62
2023/08/27 04:40:24;;;;;;;5.25;4.13;;;;;;;25.03;48.59;101028.56;21087360;28;20086;-62
2023/08/27 04:50:25;;;;;;;5.10;4.60;;;;;;;25.04;48.80;101029.38;21087463;28;20036;-63
2023/08/27 05:00:27;;;;;;;4.68;4.28;;;;;;;25.06;50.24;101027.94;21085497;28;20042;-63
2023/08/27 05:10:29;;;;;;;5.30;4.50;;;;;;;25.35;54.04;101024.91;21084376;28;20476;-63
2023/08/27 05:20:30;;;;;;;4.88;4.22;;;;;;;25.58;53.85;101019.44;21067439;28;20040;-63
2023/08/27 05:30:31;;;;;;;4.80;4.35;;;;;;;25.80;53.42;101025.19;21026506;28;20053;-63
2023/08/27 05:40:40;;;;;;;4.68;4.25;;;;;;;25.96;53.22;101019.25;21043269;28;20040;-64
2023/08/27 05:50:42;;;;;;;4.55;4.05;;;;;;;26.08;53.02;101011.13;21067994;28;20036;-64
2023/08/27 06:00:46;;;;;;;6.00;4.72;;;;;;;26.16;52.97;100995.50;21065733;28;20036;-64
2023/08/27 06:10:48;;;;;;;5.88;4.40;;;;;;;26.27;53.04;100994.97;21079675;28;20036;-64
2023/08/27 06:20:50;;;;;;;4.97;4.47;;;;;;;26.30;52.87;100971.09;21067912;28;20426;-63
2023/08/27 06:30:51;;;;;;;5.32;4.20;;;;;;;26.46;52.50;100988.41;21079209;28;20066;-62
2023/08/27 06:40:53;;;;;;;7.65;3.65;;;;;;;26.52;52.90;100973.91;21073899;28;20443;-61
2023/08/27 06:50:54;;;;;;;10.00;4.28;;;;;;;26.75;52.54;100993.56;21069311;28;20125;-63
2023/08/27 07:00:56;;;;;;;7.75;4.68;;;;;;;26.83;52.58;100998.41;21065060;28;20179;-62
2023/08/27 07:10:57;;;;;;;8.23;3.80;;;;;;;26.89;52.53;101004.72;21076805;28;20050;-65
2023/08/27 07:20:58;;;;;;;5.40;3.88;;;;;;;26.91;52.52;101006.06;21068563;28;20044;-63
2023/08/27 07:31:00;;;;;;;6.43;4.40;;;;;;;26.92;52.22;101004.91;21063854;28;20722;-64
2023/08/27 07:41:04;;;;;;;4.68;3.88;;;;;;;26.89;52.45;100987.88;21078013;28;20110;-63
2023/08/27 07:51:06;;;;;;;5.72;3.90;;;;;;;27.00;52.15;101000.50;21088460;28;20048;-64
2023/08/27 08:01:07;;;;;;;4.85;3.58;;;;;;;27.04;52.26;101007.97;21089668;28;20384;-64
2023/08/27 08:11:09;;;;;;;4.63;3.83;;;;;;;27.01;52.51;101011.41;21089284;28;20093;-63
2023/08/27 08:21:10;;;;;;;5.75;4.00;;;;;;;27.11;52.27;101025.22;21088719;28;20043;-62
2023/08/27 08:31:11;;;;;;;5.65;3.15;;;;;;;27.04;52.13;101009.97;21081754;28;20039;-63
2023/08/27 08:41:25;;;;;;;4.57;4.03;;;;;;;27.11;52.16;101013.97;21081145;28;20479;-64
2023/08/27 08:51:26;;;;;;;6.68;3.65;;;;;;;27.22;52.19;101024.97;21087889;28;20065;-62
2023/08/27 09:01:29;;;;;;;6.20;3.53;;;;;;;27.26;51.96;101037.19;21084415;28;20051;-62
2023/08/27 09:11:35;;;;;;;4.40;4.00;;;;;;;27.14;52.29;101015.31;21085301;28;20445;-62
2023/08/27 09:21:36;;;;;;;4.38;3.60;;;;;;;27.16;52.32;101021.44;21084809;28;20040;-63
2023/08/27 09:31:45;;;;;;;4.57;3.63;;;;;;;27.30;52.14;101033.41;21083789;28;20040;-63
2023/08/27 09:41:48;;;;;;;5.00;3.60;;;;;;;27.33;52.28;101037.56;21077141;28;20082;-64
2023/08/27 09:51:56;;;;;;;4.75;3.75;;;;;;;27.35;52.47;101049.31;21076710;28;20040;-63
2023/08/27 10:01:58;;;;;;;4.07;3.30;;;;;;;27.45;52.36;101079.13;21082413;28;20044;-63
2023/08/27 10:12:00;;;;;;;5.25;4.05;;;;;;;27.40;52.44;101087.69;21077150;28;20040;-64
2023/08/27 10:22:05;;;;;;;4.00;3.60;;;;;;;27.45;52.60;101110.06;21062116;28;20044;-63
2023/08/27 10:32:07;;;;;;;3.90;3.60;;;;;;;27.49;52.36;101119.47;21079208;28;20052;-63
2023/08/27 10:42:33;;;;;;;3.95;3.42;;;;;;;27.43;52.58;101132.84;21078289;28;20040;-62
2023/08/27 10:52:49;;;;;;;4.05;3.65;;;;;;;27.32;52.66;101114.59;21078668;28;20047;-63
2023/08/27 11:03:14;;;;;;;3.55;3.22;;;;;;;27.45;51.13;101147.41;21078568;28;20048;-63
2023/08/27 11:13:37;;;;;;;2.97;2.72;;;;;;;26.82;49.91;101163.25;21080892;28;20032;-63
2023/08/27 11:23:45;;;;;;;3.35;3.05;;;;;;;26.52;49.34;101175.13;21085635;28;20032;-63
2023/08/27 11:33:47;;;;;;;4.13;3.67;;;;;;;26.28;48.51;101193.00;21090618;28;20071;-63
2023/08/27 11:43:55;;;;;;;3.53;3.22;;;;;;;26.16;48.64;101198.31;21079125;28;20036;-63
2023/08/27 11:53:56;;;;;;;3.65;3.35;;;;;;;25.89;48.59;101190.69;21091506;28;20440;-63
2023/08/27 12:03:58;;;;;;;3.40;2.95;;;;;;;25.94;48.12;101218.63;21091339;28;20044;-63
2023/08/27 12:14:01;;;;;;;3.03;2.75;;;;;;;25.73;48.23;101226.53;21064808;28;20040;-63
2023/08/27 12:24:03;;;;;;;3.78;3.05;;;;;;;25.74;48.15;101227.34;21086449;28;20036;-63
2023/08/27 12:34:05;;;;;;;5.15;3.33;;;;;;;25.67;47.43;101232.53;21082831;28;20060;-63
2023/08/27 12:44:06;;;;;;;4.78;3.15;;;;;;;25.45;47.75;101203.19;21084465;28;20089;-64
2023/08/27 12:54:07;;;;;;;3.58;3.00;;;;;;;25.57;47.86;101227.94;21087536;28;20056;-64
2023/08/27 13:04:09;;;;;;;3.28;2.97;;;;;;;25.47;47.43;101205.69;21083769;28;20036;-63
2023/08/27 13:14:10;;;;;;;3.35;2.90;;;;;;;25.34;47.69;101213.75;21082733;28;20059;-63
2023/08/27 13:24:12;;;;;;;4.10;3.00;;;;;;;25.35;48.21;101218.19;21083608;28;20444;-64
2023/08/27 13:34:13;;;;;;;3.97;2.92;;;;;;;25.19;48.23;101205.56;21080153;28;20474;-63
2023/08/27 13:44:15;;;;;;;3.33;3.03;;;;;;;25.29;48.34;101229.78;21079307;28;20047;-63
2023/08/27 13:54:16;;;;;;;3.42;2.92;;;;;;;25.25;48.35;101237.97;21079332;28;20044;-62
2023/08/27 14:04:17;;;;;;;5.57;3.13;;;;;;;25.22;48.68;101244.19;21079698;28;20044;-63
2023/08/27 14:14:19;;;;;;;7.38;4.80;;;;;;;25.16;48.57;101242.59;21079053;28;20032;-61
2023/08/27 14:24:20;;;;;;;12.13;8.85;;;;;;;25.22;48.38;101255.38;21059845;28;20044;-65
2023/08/27 14:34:21;;;;;;;18.08;10.70;;;;;;;25.20;49.24;101248.41;21065871;28;20040;-63
2023/08/27 14:44:23;;;;;;;20.73;11.23;;;;;;;25.26;49.61;101255.59;21064134;28;20035;-66
2023/08/27 14:54:24;;;;;;;23.10;11.95;;;;;;;25.27;50.51;101244.09;21067063;28;20478;-65
2023/08/27 15:04:26;;;;;;;30.02;11.02;;;;;;;25.24;49.90;101238.25;21052220;28;20366;-64
2023/08/27 15:14:29;;;;;;;26.15;10.45;;;;;;;25.22;49.34;101244.19;21060286;28;20101;-64
2023/08/27 15:24:30;;;;;;;26.60;10.82;;;;;;;25.25;50.47;101237.97;21052518;28;20048;-64
2023/08/27 15:34:36;;;;;;;23.05;10.50;;;;;;;25.19;50.80;101222.38;21054924;28;20048;-64
2023/08/27 15:44:37;;;;;;;26.70;10.32;;;;;;;25.28;53.75;101214.94;21062788;28;20036;-63
2023/08/27 15:54:39;;;;;;;28.95;10.80;;;;;;;25.62;56.72;101225.06;21061628;28;20382;-63
2023/08/27 16:04:40;;;;;;;25.63;10.57;;;;;;;25.91;56.61;101221.22;21075193;28;20040;-63
2023/08/27 16:14:42;;;;;;;29.20;9.85;;;;;;;26.10;56.54;101207.94;21075802;28;20041;-64
2023/08/27 16:24:43;;;;;;;32.30;9.80;;;;;;;26.29;56.63;101205.88;21077968;28;20036;-63
2023/08/27 16:34:44;;;;;;;34.70;10.45;;;;;;;26.45;56.28;101191.59;21075633;28;20117;-62
2023/08/27 16:44:48;;;;;;;32.33;9.43;;;;;;;26.57;56.23;101189.06;21066004;28;20043;-62
2023/08/27 16:54:52;;;;;;;33.50;9.48;;;;;;;26.66;56.12;101181.56;21077619;28;20048;-63
2023/08/27 17:04:54;;;;;;;27.35;8.50;;;;;;;26.76;55.44;101178.53;21082276;28;20056;-62
2023/08/27 17:14:55;;;;;;;12.00;7.95;;;;;;;26.85;55.00;101179.47;21073164;28;20043;-62
2023/08/27 17:25:00;;;;;;;16.45;7.47;;;;;;;26.93;55.09;101175.06;21070596;28;20048;-62
2023/08/27 17:35:04;;;;;;;11.52;7.18;;;;;;;27.01;54.92;101159.44;21070481;28;20379;-63
2023/08/27 17:45:06;;;;;;;11.93;6.43;;;;;;;27.07;54.92;101163.78;21064976;28;20047;-63
2023/08/27 17:55:08;;;;;;;12.88;6.38;;;;;;;27.16;54.50;101158.25;21071089;28;20048;-62
2023/08/27 18:05:09;;;;;;;16.25;7.43;;;;;;;26.66;51.76;101131.03;21059281;28;20032;-62
2023/08/27 18:15:11;;;;;;;16.20;6.65;;;;;;;26.52;50.67;101141.47;21069214;28;20105;-61
2023/08/27 18:25:13;;;;;;;15.13;6.70;;;;;;;26.13;49.86;101086.72;21040683;28;20052;-62
2023/08/27 18:35:15;;;;;;;13.98;6.55;;;;;;;26.44;49.24;101136.63;21075789;28;20116;-62
2023/08/27 18:45:16;;;;;;;13.02;6.45;;;;;;;26.34;49.00;101132.84;21066470;28;20375;-62
2023/08/27 18:55:18;;;;;;;10.93;6.28;;;;;;;26.22;49.24;101114.88;21073467;28;20083;-61
2023/08/27 19:05:19;;;;;;;32.75;7.45;;;;;;;26.08;49.43;101104.50;21072082;28;20047;-61
2023/08/27 19:15:21;;;;;;;50.95;9.05;;;;;;;25.94;49.16;101078.44;21076053;28;20039;-64
2023/08/27 19:25:22;;;;;;;20.48;7.40;;;;;;;26.00;48.85;101090.38;21060481;28;20040;-64
2023/08/27 19:35:24;;;;;;;19.80;7.13;;;;;;;26.04;49.76;101089.44;21073146;28;20044;-64
2023/08/27 19:45:25;;;;;;;16.17;7.25;;;;;;;25.82;49.05;101072.50;21090397;28;20070;-65
2023/08/27 19:55:26;;;;;;;10.05;5.72;;;;;;;25.84;49.06;101098.25;21060883;28;20431;-64
2023/08/27 20:05:28;;;;;;;14.63;6.72;;;;;;;26.14;54.61;101093.16;21042625;28;20047;-65
2023/08/27 20:15:32;;;;;;;10.18;6.47;;;;;;;26.49;55.19;101097.22;21032582;28;20093;-64
2023/08/27 20:25:34;;;;;;;8.60;6.20;;;;;;;26.65;54.97;101092.06;21044572;28;20041;-64
2023/08/27 20:35:37;;;;;;;11.05;7.25;;;;;;;26.79;55.03;101090.84;21055786;28;20055;-64
2023/08/27 20:45:44;;;;;;;9.55;6.07;;;;;;;26.89;54.75;101094.56;21013519;28;20045;-64
2023/08/27 20:55:45;;;;;;;;;;;;;;;27.09;54.61;101110.97;21060796;28;20079;-64
2023/08/27 21:05:49;;;;;;;10.32;5.72;;;;;;;27.19;54.01;101119.13;21041748;28;19923;-64
2023/08/27 21:15:54;;;;;;;9.32;6.32;;;;;;;27.16;54.12;101099.25;21077133;28;20036;-64
2023/08/27 21:25:59;;;;;;;10.45;6.00;;;;;;;27.32;53.98;101115.41;21077478;28;20560;-66
2023/08/27 21:36:00;;;;;;;10.32;5.78;;;;;;;26.90;50.56;101113.09;21081525;28;20105;-67
2023/08/27 21:46:01;;;;;;;10.50;5.38;;;;;;;26.62;50.07;101121.59;21073856;28;20043;-67
2023/08/27 21:56:06;;;;;;;7.65;6.15;;;;;;;26.22;49.80;101084.84;21057977;28;20051;-67
2023/08/27 22:06:07;;;;;;;8.23;6.05;;;;;;;26.21;49.11;101102.84;21071194;28;20063;-64
2023/08/27 22:16:09;;;;;;;7.20;5.15;;;;;;;26.15;49.06;101128.47;21063658;28;20097;-59
2023/08/27 22:26:10;;;;;;;9.75;5.55;;;;;;;26.10;48.88;101130.25;21046185;28;20036;-60
2023/08/27 22:36:17;;;;;;;14.25;5.70;;;;;;;25.99;48.97;101127.97;21053866;28;20032;-60
2023/08/27 22:46:18;;;;;;;;;;;;;;;25.91;48.91;101128.69;21001555;28;20040;-59
2023/08/27 22:56:20;;;;;;;9.93;5.53;;;;;;;25.88;48.48;101134.91;21044385;28;19913;-59
2023/08/27 23:06:21;;;;;;;7.20;5.43;;;;;;;25.75;48.30;101134.56;21025388;28;20044;-60
2023/08/27 23:16:23;;;;;;;6.57;5.25;;;;;;;25.83;51.57;101147.88;21032487;28;20033;-60
2023/08/27 23:26:25;;;;;;;5.82;5.28;;;;;;;26.21;54.37;101153.31;21063900;28;20036;-60
2023/08/27 23:36:26;;;;;;;8.43;5.50;;;;;;;26.49;54.40;101158.94;21085439;28;20452;-59
2023/08/27 23:46:28;;;;;;;7.10;5.68;;;;;;;26.63;54.44;101173.78;21072115;28;20036;-59
2023/08/27 23:56:29;;;;;;;8.15;4.93;;;;;;;26.80;54.23;101201.19;21077177;28;20113;-60
